Time;durP1;ratioP1;P1;durP2;ratioP2;P2;SDS_P1;SDS_P2;PMS_P1;PMS_P2;Temp;Humidity;BMP_temperature;BMP_pressure;BME280_temperature;BME280_humidity;BME280_pressure;Samples;Min_cycle;Max_cycle;Signal;HPM_P1;HPM_P2
2020/12/06 00:01:30;;;;;;;44.45;25.73;;;3.50;99.90;;;;;;5032813;28;20539;-73
2020/12/06 00:03:56;;;;;;;41.85;26.55;;;3.50;99.90;;;;;;5031845;28;20124;-72
2020/12/06 00:06:21;;;;;;;41.25;25.77;;;3.60;99.90;;;;;;5032650;28;20068;-73
2020/12/06 00:08:49;;;;;;;45.97;27.00;;;3.60;99.90;;;;;;5032387;28;20017;-73
2020/12/06 00:11:16;;;;;;;44.42;27.83;;;3.60;99.90;;;;;;5032028;28;20024;-72
2020/12/06 00:13:42;;;;;;;43.30;26.85;;;3.60;99.90;;;;;;5031951;28;20033;-73
2020/12/06 00:16:12;;;;;;;46.42;28.13;;;3.70;99.90;;;;;;5032390;28;20017;-72
2020/12/06 00:18:39;;;;;;;50.88;31.58;;;3.60;99.90;;;;;;5037730;28;20152;-72
2020/12/06 00:21:05;;;;;;;49.28;30.63;;;3.60;99.90;;;;;;5032704;28;20029;-72
2020/12/06 00:23:31;;;;;;;47.70;31.02;;;3.60;99.90;;;;;;5032010;28;20034;-72
2020/12/06 00:25:57;;;;;;;43.38;30.58;;;3.70;99.90;;;;;;5032511;28;20024;-73
2020/12/06 00:28:22;;;;;;;52.22;31.65;;;3.60;99.90;;;;;;5033443;28;20079;-73
2020/12/06 00:30:48;;;;;;;44.10;29.40;;;3.70;99.90;;;;;;5037862;28;20028;-74
2020/12/06 00:33:14;;;;;;;43.67;28.55;;;3.60;99.90;;;;;;5033092;28;20044;-72
2020/12/06 00:35:39;;;;;;;41.25;27.40;;;3.60;99.90;;;;;;5032598;28;20026;-74
2020/12/06 00:38:05;;;;;;;44.05;27.92;;;3.70;99.90;;;;;;5033057;28;20086;-72
2020/12/06 00:40:31;;;;;;;45.13;28.20;;;3.60;99.90;;;;;;5033196;28;20036;-72
2020/12/06 00:42:56;;;;;;;47.65;31.75;;;3.60;99.90;;;;;;5031945;28;20079;-73
2020/12/06 00:45:22;;;;;;;50.75;31.33;;;3.70;99.90;;;;;;5032486;28;20422;-74
2020/12/06 00:47:47;;;;;;;43.58;28.63;;;3.60;99.90;;;;;;5032586;28;20479;-72
2020/12/06 00:50:13;;;;;;;43.00;27.63;;;3.60;99.90;;;;;;5032159;28;20024;-73
2020/12/06 00:52:39;;;;;;;48.72;30.85;;;3.60;99.90;;;;;;5031577;28;20029;-72
2020/12/06 00:55:04;;;;;;;45.28;29.42;;;3.70;99.90;;;;;;5031673;28;20231;-71
2020/12/06 00:57:30;;;;;;;45.90;29.83;;;3.70;99.90;;;;;;5031698;28;20108;-72
2020/12/06 00:59:56;;;;;;;45.75;29.27;;;3.60;99.90;;;;;;5030289;28;20033;-71
2020/12/06 01:02:22;;;;;;;40.13;28.08;;;3.70;99.90;;;;;;5030908;28;20030;-72
2020/12/06 01:04:47;;;;;;;45.92;28.50;;;3.60;99.90;;;;;;5029452;28;20075;-71
2020/12/06 01:07:13;;;;;;;42.58;28.67;;;3.60;99.90;;;;;;5029114;28;20033;-71
2020/12/06 01:09:39;;;;;;;45.15;29.25;;;3.60;99.90;;;;;;5030417;28;20025;-74
2020/12/06 01:12:04;;;;;;;49.42;31.90;;;3.60;99.90;;;;;;5029988;28;20506;-72
2020/12/06 01:14:30;;;;;;;52.28;33.17;;;3.80;99.90;;;;;;5029309;28;20025;-71
2020/12/06 01:16:56;;;;;;;48.08;30.02;;;3.70;99.90;;;;;;5027368;28;20057;-71
2020/12/06 01:19:21;;;;;;;45.10;30.33;;;3.60;99.90;;;;;;5030068;28;20029;-71
2020/12/06 01:21:51;;;;;;;44.95;29.95;;;3.40;99.90;;;;;;5030843;28;20075;-72
2020/12/06 01:24:18;;;;;;;43.90;28.98;;;3.40;99.90;;;;;;5030644;28;20018;-72
2020/12/06 01:26:48;;;;;;;42.63;28.75;;;3.30;99.90;;;;;;5034658;28;20029;-71
2020/12/06 01:29:14;;;;;;;48.03;29.80;;;3.20;99.90;;;;;;5035959;28;20036;-71
2020/12/06 01:31:47;;;;;;;43.67;29.42;;;3.20;99.90;;;;;;5037081;28;20479;-72
2020/12/06 01:34:14;;;;;;;41.85;27.15;;;3.20;99.90;;;;;;5032813;28;20033;-71
2020/12/06 01:36:40;;;;;;;44.20;29.42;;;3.30;99.90;;;;;;5034535;28;20019;-72
2020/12/06 01:39:06;;;;;;;50.10;30.02;;;3.40;99.90;;;;;;5034203;28;20029;-70
2020/12/06 01:41:31;;;;;;;47.88;29.58;;;3.40;99.90;;;;;;5033583;28;20040;-72
2020/12/06 01:44:03;;;;;;;48.20;31.13;;;3.40;99.90;;;;;;5033236;28;20096;-73
2020/12/06 01:46:30;;;;;;;44.70;30.02;;;3.40;99.90;;;;;;5033552;28;20028;-73
2020/12/06 01:48:55;;;;;;;47.75;31.85;;;3.30;99.90;;;;;;5032417;28;20025;-72
2020/12/06 01:51:23;;;;;;;48.35;30.95;;;3.30;99.90;;;;;;5032859;28;20093;-72
2020/12/06 01:53:51;;;;;;;54.58;34.13;;;3.40;99.90;;;;;;5029617;28;20056;-72
2020/12/06 01:56:18;;;;;;;50.65;32.28;;;3.30;99.90;;;;;;5032899;28;20014;-72
2020/12/06 01:58:44;;;;;;;56.65;34.35;;;3.30;99.90;;;;;;5032613;28;20416;-71
2020/12/06 02:01:11;;;;;;;45.90;31.02;;;3.30;99.90;;;;;;5032480;28;20032;-71
2020/12/06 02:03:38;;;;;;;52.60;32.90;;;3.30;99.90;;;;;;5031552;28;20036;-71
2020/12/06 02:06:04;;;;;;;51.22;32.35;;;3.30;99.90;;;;;;5032580;28;20387;-71
2020/12/06 02:08:30;;;;;;;50.53;30.73;;;3.20;99.90;;;;;;5032646;28;20091;-73
2020/12/06 02:10:56;;;;;;;51.97;31.25;;;3.20;99.90;;;;;;5032848;28;20424;-72
2020/12/06 02:13:22;;;;;;;52.00;32.40;;;3.30;99.90;;;;;;5032463;28;20029;-72
2020/12/06 02:15:48;;;;;;;41.83;28.05;;;3.20;99.90;;;;;;5035320;28;20345;-71
2020/12/06 02:18:15;;;;;;;43.97;29.67;;;3.00;99.90;;;;;;5034726;28;20069;-71
2020/12/06 02:20:41;;;;;;;47.03;29.55;;;3.10;99.90;;;;;;5034090;28;20488;-70
2020/12/06 02:23:06;;;;;;;42.63;27.65;;;3.00;99.90;;;;;;5033608;28;20479;-70
2020/12/06 02:25:39;;;;;;;41.47;27.63;;;3.10;99.90;;;;;;5033943;28;20072;-70
2020/12/06 02:28:07;;;;;;;46.60;29.25;;;3.10;99.90;;;;;;5033574;28;20025;-70
2020/12/06 02:30:33;;;;;;;46.38;28.45;;;3.20;99.90;;;;;;5033548;28;20026;-70
2020/12/06 02:33:00;;;;;;;45.50;29.80;;;3.10;99.90;;;;;;5033142;28;20037;-71
2020/12/06 02:35:25;;;;;;;45.53;28.65;;;3.20;99.90;;;;;;5033988;28;20667;-71
2020/12/06 02:37:51;;;;;;;45.88;27.90;;;3.20;99.90;;;;;;5033560;28;20029;-71
2020/12/06 02:40:16;;;;;;;42.78;27.77;;;3.20;99.90;;;;;;5033540;28;20026;-71
2020/12/06 02:42:42;;;;;;;49.47;30.30;;;3.20;99.90;;;;;;5032973;28;20021;-71
2020/12/06 02:45:08;;;;;;;42.47;27.17;;;3.30;99.90;;;;;;5033237;28;20028;-71
2020/12/06 02:47:34;;;;;;;43.67;27.70;;;3.20;99.90;;;;;;5033527;28;20099;-71
2020/12/06 02:49:59;;;;;;;46.50;29.83;;;3.20;99.90;;;;;;5033390;28;20021;-71
2020/12/06 02:52:25;;;;;;;52.05;31.27;;;3.20;99.90;;;;;;5033289;28;20488;-70
2020/12/06 02:54:51;;;;;;;41.75;26.58;;;3.20;99.90;;;;;;5032682;28;20567;-71
2020/12/06 02:57:17;;;;;;;47.35;28.60;;;3.20;99.90;;;;;;5032823;28;20056;-70
2020/12/06 02:59:42;;;;;;;46.95;29.80;;;3.20;99.90;;;;;;5033008;28;20029;-72
2020/12/06 03:02:08;;;;;;;43.58;27.02;;;3.20;99.90;;;;;;5032147;28;20021;-71
2020/12/06 03:04:33;;;;;;;48.63;29.75;;;3.20;99.90;;;;;;5032932;28;20029;-69
2020/12/06 03:06:59;;;;;;;49.45;29.98;;;3.30;99.90;;;;;;5034140;28;20120;-71
2020/12/06 03:09:25;;;;;;;45.42;27.30;;;3.30;99.90;;;;;;5036973;28;20025;-69
2020/12/06 03:11:51;;;;;;;58.20;33.22;;;3.30;99.90;;;;;;5036738;28;20078;-70
2020/12/06 03:14:16;;;;;;;51.25;28.35;;;3.30;99.90;;;;;;5034946;28;20025;-72
2020/12/06 03:16:42;;;;;;;48.03;29.30;;;3.40;99.90;;;;;;5033672;28;20030;-70
2020/12/06 03:19:08;;;;;;;52.35;31.50;;;3.30;99.90;;;;;;5032764;28;20033;-70
2020/12/06 03:21:33;;;;;;;51.45;30.95;;;3.40;99.90;;;;;;5032978;28;20017;-70
2020/12/06 03:23:59;;;;;;;50.58;29.33;;;3.40;99.90;;;;;;5032100;28;20116;-68
2020/12/06 03:26:25;;;;;;;53.85;30.23;;;3.40;99.90;;;;;;5032655;28;20021;-70
2020/12/06 03:28:50;;;;;;;49.88;29.02;;;3.30;99.90;;;;;;5032302;28;20033;-70
2020/12/06 03:31:16;;;;;;;50.40;29.52;;;3.30;99.90;;;;;;5032745;28;20105;-71
2020/12/06 03:33:42;;;;;;;50.28;28.60;;;3.30;99.90;;;;;;5030477;28;20061;-70
2020/12/06 03:36:08;;;;;;;50.67;29.65;;;3.30;99.90;;;;;;5032409;28;20392;-70
2020/12/06 03:38:34;;;;;;;45.28;27.40;;;3.40;99.90;;;;;;5032740;28;20021;-71
2020/12/06 03:41:00;;;;;;;48.53;27.90;;;3.40;99.90;;;;;;5032086;28;20033;-70
2020/12/06 03:43:26;;;;;;;47.50;29.33;;;3.40;99.90;;;;;;5031426;28;20028;-71
2020/12/06 03:45:51;;;;;;;50.47;29.30;;;3.40;99.90;;;;;;5031438;28;20456;-69
2020/12/06 03:48:17;;;;;;;50.97;28.55;;;3.40;99.90;;;;;;5030877;28;20028;-69
2020/12/06 03:50:42;;;;;;;46.30;28.17;;;3.40;99.90;;;;;;5032260;28;20029;-70
2020/12/06 03:53:08;;;;;;;48.53;28.20;;;3.40;99.90;;;;;;5031245;28;20026;-70
2020/12/06 03:55:34;;;;;;;56.65;29.90;;;3.40;99.90;;;;;;5031943;28;20111;-70
2020/12/06 03:58:00;;;;;;;56.22;30.02;;;3.40;99.90;;;;;;5031725;28;20029;-70
2020/12/06 04:00:26;;;;;;;56.15;30.50;;;3.50;99.90;;;;;;5031620;28;20033;-70
2020/12/06 04:02:52;;;;;;;57.38;31.92;;;3.40;99.90;;;;;;5031119;28;20090;-71
2020/12/06 04:05:21;;;;;;;49.42;28.35;;;3.40;99.90;;;;;;5031617;28;20029;-71
2020/12/06 04:07:50;;;;;;;62.22;30.20;;;3.40;99.90;;;;;;5031756;28;20026;-69
2020/12/06 04:10:17;;;;;;;54.45;29.38;;;3.50;99.90;;;;;;5031506;28;20111;-71
2020/12/06 04:12:44;;;;;;;56.35;30.63;;;3.50;99.90;;;;;;5030763;28;20037;-72
2020/12/06 04:15:10;;;;;;;57.58;30.40;;;3.50;99.90;;;;;;5030154;28;20491;-71
2020/12/06 04:17:36;;;;;;;58.85;31.23;;;3.50;99.90;;;;;;5031785;28;20135;-71
2020/12/06 04:20:02;;;;;;;55.63;29.35;;;3.40;99.90;;;;;;5031485;28;20029;-71
2020/12/06 04:22:28;;;;;;;51.10;28.65;;;3.30;99.90;;;;;;5031565;28;20022;-68
2020/12/06 04:24:54;;;;;;;48.70;27.75;;;3.30;99.90;;;;;;5030837;28;20100;-69
2020/12/06 04:27:19;;;;;;;47.85;27.60;;;3.30;99.90;;;;;;5031449;28;20037;-69
2020/12/06 04:29:45;;;;;;;51.45;28.95;;;3.30;99.90;;;;;;5031498;28;20034;-70
2020/12/06 04:32:11;;;;;;;53.72;29.20;;;3.30;99.90;;;;;;5031388;28;20134;-70
2020/12/06 04:34:36;;;;;;;59.17;31.45;;;3.40;99.90;;;;;;5030593;28;20112;-70
2020/12/06 04:37:07;;;;;;;54.25;28.25;;;3.40;99.90;;;;;;5031432;28;20029;-70
2020/12/06 04:39:33;;;;;;;51.17;28.13;;;3.50;99.90;;;;;;5031177;28;20144;-71
2020/12/06 04:42:00;;;;;;;50.30;27.95;;;3.50;99.90;;;;;;5031067;28;20032;-72
2020/12/06 04:44:26;;;;;;;51.25;29.65;;;3.40;99.90;;;;;;5030451;28;20100;-70
2020/12/06 04:46:59;;;;;;;50.58;28.92;;;3.50;99.90;;;;;;5031376;28;20030;-71
2020/12/06 04:49:47;;;;;;;52.60;29.27;;;3.50;99.90;;;;;;5031283;28;20021;-71
2020/12/06 04:52:19;;;;;;;45.58;27.42;;;3.40;99.90;;;;;;5031397;28;20071;-71
2020/12/06 04:54:51;;;;;;;44.97;26.27;;;3.40;99.90;;;;;;5029758;28;20018;-71
2020/12/06 04:57:17;;;;;;;;;;;3.40;99.90;;;;;;5034743;28;20075;-71
2020/12/06 04:59:46;;;;;;;48.63;25.77;;;3.40;99.90;;;;;;5035211;28;19916;-71
2020/12/06 05:02:18;;;;;;;45.05;26.25;;;3.30;99.90;;;;;;5035130;28;20033;-71
2020/12/06 05:04:46;;;;;;;;;;;3.40;99.90;;;;;;5037672;28;20034;-69
2020/12/06 05:07:11;;;;;;;49.55;27.02;;;3.50;99.90;;;;;;5039471;28;19913;-70
2020/12/06 05:09:37;;;;;;;51.75;26.27;;;3.50;99.90;;;;;;5038866;28;20047;-70
2020/12/06 05:12:05;;;;;;;46.95;26.75;;;3.50;99.90;;;;;;5039545;28;20021;-70
2020/12/06 05:14:31;;;;;;;48.58;26.25;;;3.40;99.90;;;;;;5039214;28;20550;-70
2020/12/06 05:16:57;;;;;;;44.20;26.17;;;3.40;99.90;;;;;;5038283;28;20033;-70
2020/12/06 05:19:27;;;;;;;47.70;27.27;;;3.40;99.90;;;;;;5035169;28;20029;-70
2020/12/06 05:21:53;;;;;;;45.15;25.08;;;3.50;99.90;;;;;;5035193;28;20100;-70
2020/12/06 05:24:19;;;;;;;48.60;26.38;;;3.50;99.90;;;;;;5032158;28;20097;-70
2020/12/06 05:26:45;;;;;;;52.95;27.42;;;3.50;99.90;;;;;;5034965;28;20058;-70
2020/12/06 05:29:13;;;;;;;50.17;27.48;;;3.40;99.90;;;;;;5034377;28;20030;-69
2020/12/06 05:31:38;;;;;;;51.45;28.52;;;3.50;99.90;;;;;;5034626;28;20022;-70
2020/12/06 05:34:04;;;;;;;46.90;26.58;;;3.50;99.90;;;;;;5033937;28;20116;-70
2020/12/06 05:36:30;;;;;;;53.13;28.52;;;3.50;99.90;;;;;;5034676;28;20047;-69
2020/12/06 05:38:55;;;;;;;47.95;26.65;;;3.60;99.90;;;;;;5034765;28;20396;-69
2020/12/06 05:41:21;;;;;;;45.97;26.85;;;3.50;99.90;;;;;;5035439;28;20083;-70
2020/12/06 05:43:46;;;;;;;44.38;25.00;;;3.50;99.90;;;;;;5033640;28;20049;-69
2020/12/06 05:46:16;;;;;;;46.28;25.85;;;3.60;99.90;;;;;;5034554;28;20021;-69
2020/12/06 05:48:44;;;;;;;46.50;26.58;;;3.60;99.90;;;;;;5035031;28;20021;-70
2020/12/06 05:51:11;;;;;;;45.55;25.92;;;3.50;99.90;;;;;;5035256;28;20029;-71
2020/12/06 05:53:36;;;;;;;45.28;25.63;;;3.50;99.90;;;;;;5033699;28;20026;-70
2020/12/06 05:56:08;;;;;;;50.25;26.52;;;3.60;99.90;;;;;;5034496;28;20053;-70
2020/12/06 05:58:34;;;;;;;48.67;26.27;;;3.60;99.90;;;;;;5033951;28;20041;-70
2020/12/06 06:01:01;;;;;;;48.63;26.17;;;3.60;99.90;;;;;;5034145;28;20039;-70
2020/12/06 06:03:35;;;;;;;46.72;26.02;;;3.60;99.90;;;;;;5033415;28;20049;-70
2020/12/06 06:06:07;;;;;;;45.17;26.00;;;3.60;99.90;;;;;;5034470;28;20030;-70
2020/12/06 06:08:40;;;;;;;44.72;24.98;;;3.60;99.90;;;;;;5033397;28;20026;-71
2020/12/06 06:11:29;;;;;;;43.70;25.55;;;3.50;99.90;;;;;;5034036;28;20036;-70
2020/12/06 06:13:56;;;;;;;43.60;24.42;;;3.60;99.90;;;;;;5033065;28;20049;-70
2020/12/06 06:16:24;;;;;;;47.67;26.52;;;3.60;99.90;;;;;;5034304;28;20029;-70
2020/12/06 06:18:51;;;;;;;45.60;25.08;;;3.60;99.90;;;;;;5045462;23;20034;-71
2020/12/06 06:21:21;;;;;;;47.92;26.55;;;3.60;99.90;;;;;;5049465;28;20019;-71
2020/12/06 06:23:49;;;;;;;49.42;26.90;;;3.70;99.90;;;;;;5034287;28;20025;-71
2020/12/06 06:26:18;;;;;;;49.17;27.75;;;3.70;99.90;;;;;;5047723;28;20029;-71
2020/12/06 06:28:45;;;;;;;47.30;25.70;;;3.70;99.90;;;;;;5036524;28;20140;-70
2020/12/06 06:31:13;;;;;;;52.20;26.27;;;3.60;99.90;;;;;;5034041;28;20058;-71
2020/12/06 06:33:39;;;;;;;51.17;26.65;;;3.60;99.90;;;;;;5032823;28;20083;-71
2020/12/06 06:36:07;;;;;;;52.03;26.88;;;3.60;99.90;;;;;;5033680;28;20022;-71
2020/12/06 06:38:43;;;;;;;51.20;27.45;;;3.60;99.90;;;;;;5033752;28;20040;-71
2020/12/06 06:41:10;;;;;;;48.05;27.17;;;3.60;99.90;;;;;;5033611;28;20025;-71
2020/12/06 06:43:39;;;;;;;53.70;27.15;;;3.40;99.90;;;;;;5032675;28;20025;-71
2020/12/06 06:46:16;;;;;;;43.95;24.92;;;3.50;99.90;;;;;;5033650;28;20028;-71
2020/12/06 06:48:47;;;;;;;45.60;26.33;;;3.50;99.90;;;;;;5033132;28;20029;-70
2020/12/06 06:51:21;;;;;;;47.72;27.05;;;3.50;99.90;;;;;;5026852;28;20036;-74
2020/12/06 06:53:47;;;;;;;59.67;27.85;;;3.60;99.90;;;;;;5033368;28;20038;-75
2020/12/06 06:56:18;;;;;;;54.80;28.13;;;3.60;99.90;;;;;;5033319;28;20017;-72
2020/12/06 06:58:47;;;;;;;49.72;25.70;;;3.60;99.90;;;;;;5033819;28;20029;-74
2020/12/06 07:01:23;;;;;;;50.78;26.38;;;3.60;99.90;;;;;;5033176;28;20669;-74
2020/12/06 07:03:53;;;;;;;50.22;26.58;;;3.70;99.90;;;;;;5033072;28;20132;-74
2020/12/06 07:06:45;;;;;;;49.70;25.98;;;3.70;99.90;;;;;;5033808;28;20028;-74
2020/12/06 07:09:11;;;;;;;52.20;26.05;;;3.80;99.90;;;;;;5031809;28;20075;-73
2020/12/06 07:11:39;;;;;;;49.97;26.00;;;3.80;99.90;;;;;;5033060;28;20025;-72
2020/12/06 07:14:05;;;;;;;47.20;25.05;;;3.80;99.90;;;;;;5032653;28;20419;-73
2020/12/06 07:16:31;;;;;;;53.50;26.05;;;3.80;99.90;;;;;;5033121;28;20018;-74
2020/12/06 07:18:57;;;;;;;56.25;26.25;;;3.80;99.90;;;;;;5032314;28;20117;-72
2020/12/06 07:21:29;;;;;;;58.20;29.13;;;3.90;99.90;;;;;;5032592;28;20022;-73
2020/12/06 07:23:56;;;;;;;63.40;29.35;;;3.80;99.90;;;;;;5031280;28;20083;-72
2020/12/06 07:26:22;;;;;;;56.92;26.83;;;3.80;99.90;;;;;;5033122;28;20251;-72
2020/12/06 07:28:48;;;;;;;63.17;28.70;;;3.80;99.90;;;;;;5033451;28;20100;-72
2020/12/06 07:31:15;;;;;;;60.10;30.88;;;3.80;99.90;;;;;;5033315;28;20033;-75
2020/12/06 07:33:40;;;;;;;59.78;28.27;;;3.80;99.90;;;;;;5032194;28;20025;-73
2020/12/06 07:36:06;;;;;;;58.08;28.27;;;3.70;99.90;;;;;;5032667;28;20116;-73
2020/12/06 07:38:35;;;;;;;60.70;27.63;;;3.70;99.90;;;;;;5032441;28;20034;-75
2020/12/06 07:41:05;;;;;;;62.08;29.75;;;3.70;99.90;;;;;;5032257;28;20629;-72
2020/12/06 07:43:32;;;;;;;59.20;28.20;;;3.70;99.90;;;;;;5031903;28;20014;-71
2020/12/06 07:46:10;;;;;;;68.95;29.42;;;3.80;99.90;;;;;;5032616;28;20029;-74
2020/12/06 07:48:36;;;;;;;72.03;30.38;;;3.60;99.90;;;;;;5033002;28;20036;-77
2020/12/06 07:51:02;;;;;;;70.22;30.20;;;3.70;99.90;;;;;;5030925;28;20025;-77
2020/12/06 07:53:27;;;;;;;65.28;28.73;;;3.60;99.90;;;;;;5032326;28;20079;-77
2020/12/06 07:56:05;;;;;;;71.57;30.33;;;3.70;99.90;;;;;;5032801;28;20055;-76
2020/12/06 07:58:38;;;;;;;65.28;28.13;;;3.60;99.90;;;;;;5032513;28;20030;-76
2020/12/06 08:01:03;;;;;;;;;;;3.60;99.90;;;;;;5032523;28;20365;-76
2020/12/06 08:03:31;;;;;;;55.63;27.45;;;3.60;99.90;;;;;;5029607;28;19919;-76
2020/12/06 08:06:01;;;;;;;53.33;25.15;;;3.60;99.90;;;;;;5032286;28;20032;-74
2020/12/06 08:08:27;;;;;;;62.22;29.15;;;3.60;99.90;;;;;;5031890;28;20021;-75
2020/12/06 08:10:59;;;;;;;65.43;28.30;;;3.80;99.90;;;;;;5031803;28;20112;-76
2020/12/06 08:13:25;;;;;;;65.10;28.65;;;3.80;99.90;;;;;;5031264;28;20037;-76
2020/12/06 08:15:50;;;;;;;63.90;29.15;;;3.80;99.90;;;;;;5031596;28;20040;-72
2020/12/06 08:18:17;;;;;;;63.80;29.75;;;3.90;99.90;;;;;;5030924;28;20044;-71
2020/12/06 08:20:53;;;;;;;54.42;24.80;;;4.00;99.90;;;;;;5030983;28;20099;-70
2020/12/06 08:23:40;;;;;;;56.45;26.25;;;4.00;99.90;;;;;;5030873;28;20028;-69
2020/12/06 08:26:06;;;;;;;56.83;26.52;;;4.10;99.90;;;;;;5030147;28;20025;-69
2020/12/06 08:28:32;;;;;;;58.28;26.88;;;4.20;99.90;;;;;;5031311;28;20529;-70
2020/12/06 08:30:57;;;;;;;53.35;26.67;;;4.10;99.90;;;;;;5037413;28;20036;-68
2020/12/06 08:33:28;;;;;;;60.03;29.17;;;4.20;99.90;;;;;;5051384;28;20081;-68
2020/12/06 08:35:57;;;;;;;58.17;27.25;;;4.20;99.90;;;;;;5054214;28;20061;-69
2020/12/06 08:38:32;;;;;;;56.55;26.35;;;4.00;99.90;;;;;;5052790;28;20029;-69
2020/12/06 08:41:03;;;;;;;59.13;27.15;;;4.10;99.90;;;;;;5051293;28;20067;-72
2020/12/06 08:43:44;;;;;;;58.58;27.77;;;4.00;99.90;;;;;;5051586;28;20483;-72
2020/12/06 08:46:11;;;;;;;58.13;26.05;;;4.00;99.90;;;;;;5036186;28;20045;-70
2020/12/06 08:48:37;;;;;;;58.28;28.80;;;4.10;99.90;;;;;;5032726;28;20036;-71
2020/12/06 08:51:03;;;;;;;54.83;27.60;;;4.10;99.90;;;;;;5032110;28;20108;-72
2020/12/06 08:53:45;;;;;;;62.83;29.05;;;4.10;99.90;;;;;;5031515;28;20029;-71
2020/12/06 08:56:25;;;;;;;59.00;28.75;;;4.20;99.90;;;;;;5031170;28;20026;-72
2020/12/06 08:58:50;;;;;;;55.90;28.00;;;4.30;99.90;;;;;;5032292;28;20026;-72
2020/12/06 09:01:16;;;;;;;54.83;27.73;;;4.40;99.90;;;;;;5031516;28;20031;-71
2020/12/06 09:03:42;;;;;;;56.67;26.77;;;4.40;99.90;;;;;;5030492;28;20022;-74
2020/12/06 09:06:17;;;;;;;49.38;25.45;;;4.40;99.90;;;;;;5032523;28;20033;-73
2020/12/06 09:08:43;;;;;;;52.05;25.52;;;4.40;99.90;;;;;;5032172;28;20404;-71
2020/12/06 09:11:17;;;;;;;49.40;24.98;;;4.30;99.90;;;;;;5031353;28;20103;-71
2020/12/06 09:13:42;;;;;;;48.03;24.05;;;4.40;99.90;;;;;;5031720;28;20025;-71
2020/12/06 09:16:08;;;;;;;46.40;24.88;;;4.50;99.90;;;;;;5033000;28;20428;-72
2020/12/06 09:18:34;;;;;;;46.33;24.88;;;4.40;99.90;;;;;;5031489;28;20033;-71
2020/12/06 09:21:00;;;;;;;46.60;25.13;;;4.30;99.90;;;;;;5032113;28;20475;-73
2020/12/06 09:23:26;;;;;;;52.53;25.15;;;4.30;99.90;;;;;;5030377;28;20120;-73
2020/12/06 09:25:52;;;;;;;49.17;25.40;;;4.20;99.90;;;;;;5033091;28;20024;-73
2020/12/06 09:28:17;;;;;;;46.00;25.65;;;4.10;99.90;;;;;;5032045;28;20384;-70
2020/12/06 09:30:44;;;;;;;46.92;25.00;;;4.10;99.90;;;;;;5032544;28;20064;-73
2020/12/06 09:33:09;;;;;;;43.10;25.27;;;4.10;99.90;;;;;;5031742;28;20025;-73
2020/12/06 09:35:35;;;;;;;54.20;26.48;;;4.10;99.90;;;;;;5030514;28;20037;-73
2020/12/06 09:38:01;;;;;;;48.22;26.88;;;4.20;99.90;;;;;;5032985;28;20021;-73
2020/12/06 09:40:26;;;;;;;41.25;25.83;;;4.20;99.90;;;;;;5033476;28;20030;-70
2020/12/06 09:42:52;;;;;;;47.97;26.00;;;4.20;99.90;;;;;;5032270;28;20029;-71
2020/12/06 09:45:18;;;;;;;44.83;24.52;;;4.20;99.90;;;;;;5031617;28;20762;-70
2020/12/06 09:47:43;;;;;;;42.90;24.75;;;4.20;99.90;;;;;;5015227;28;20417;-70
2020/12/06 09:50:09;;;;;;;32.90;20.77;;;4.30;99.90;;;;;;5023455;28;20475;-69
2020/12/06 09:52:35;;;;;;;28.50;19.20;;;4.30;99.90;;;;;;5035737;28;20032;-72
2020/12/06 09:55:00;;;;;;;29.50;17.33;;;4.30;99.90;;;;;;5035246;28;20427;-74
2020/12/06 09:57:26;;;;;;;23.33;16.35;;;4.30;99.90;;;;;;5033476;28;20040;-71
2020/12/06 09:59:52;;;;;;;24.98;16.65;;;4.40;99.90;;;;;;5033911;28;20037;-72
2020/12/06 10:02:17;;;;;;;23.45;16.25;;;4.40;99.90;;;;;;5034336;28;20075;-72
2020/12/06 10:04:43;;;;;;;24.63;16.50;;;4.50;99.90;;;;;;5032556;28;20337;-72
2020/12/06 10:07:09;;;;;;;20.15;15.05;;;4.50;99.90;;;;;;5034068;28;20036;-72
2020/12/06 10:09:34;;;;;;;20.80;14.82;;;4.40;99.90;;;;;;5033716;28;20044;-72
2020/12/06 10:12:00;;;;;;;20.88;14.95;;;4.40;99.90;;;;;;5033800;28;20041;-72
2020/12/06 10:14:26;;;;;;;22.45;15.90;;;4.40;99.90;;;;;;5032791;28;20033;-72
2020/12/06 10:16:51;;;;;;;25.10;14.77;;;4.40;99.90;;;;;;5033405;28;20367;-72
2020/12/06 10:19:17;;;;;;;20.88;14.68;;;4.50;99.90;;;;;;5033767;28;20042;-72
2020/12/06 10:21:43;;;;;;;18.27;13.50;;;4.60;99.90;;;;;;5033972;28;20017;-71
2020/12/06 10:24:08;;;;;;;20.27;14.35;;;4.70;99.90;;;;;;5033314;28;20030;-72
2020/12/06 10:26:34;;;;;;;17.95;13.32;;;4.70;99.90;;;;;;5033626;28;20021;-72
2020/12/06 10:29:00;;;;;;;20.17;12.98;;;4.90;99.90;;;;;;5033584;28;20060;-72
2020/12/06 10:31:26;;;;;;;18.35;13.80;;;4.90;99.90;;;;;;5032069;28;20053;-72
2020/12/06 10:33:51;;;;;;;20.27;13.13;;;5.00;99.90;;;;;;5032390;28;20026;-71
2020/12/06 10:36:17;;;;;;;13.27;10.13;;;5.00;99.90;;;;;;5033803;28;20026;-72
2020/12/06 10:38:43;;;;;;;12.77;9.98;;;5.10;99.90;;;;;;5033476;28;20025;-72
2020/12/06 10:41:10;;;;;;;14.15;10.75;;;5.10;99.90;;;;;;5033326;28;20553;-71
2020/12/06 10:43:35;;;;;;;10.82;9.15;;;5.10;99.90;;;;;;5032938;28;20051;-72
2020/12/06 10:46:01;;;;;;;14.35;10.38;;;5.00;99.90;;;;;;5033534;28;20021;-70
2020/12/06 10:48:27;;;;;;;16.65;11.80;;;4.90;99.90;;;;;;5033271;28;20025;-72
2020/12/06 10:50:53;;;;;;;16.50;11.75;;;5.10;99.90;;;;;;5033101;28;20026;-72
2020/12/06 10:53:19;;;;;;;13.88;11.25;;;5.10;99.90;;;;;;5031141;28;20036;-71
2020/12/06 10:55:44;;;;;;;16.83;12.27;;;5.20;99.90;;;;;;5032989;28;20022;-71
2020/12/06 10:58:10;;;;;;;13.98;10.65;;;5.10;99.90;;;;;;5031739;28;20029;-71
2020/12/06 11:00:36;;;;;;;10.85;9.00;;;5.00;99.90;;;;;;5031471;28;20116;-72
2020/12/06 11:03:01;;;;;;;10.27;8.52;;;4.90;99.90;;;;;;5032411;28;20028;-71
2020/12/06 11:05:27;;;;;;;10.60;8.77;;;4.80;99.90;;;;;;5032859;28;20480;-71
2020/12/06 11:07:52;;;;;;;11.13;8.88;;;4.80;99.90;;;;;;5033536;28;20387;-72
2020/12/06 11:10:18;;;;;;;11.98;8.80;;;4.80;99.90;;;;;;5032970;28;20052;-71
2020/12/06 11:12:44;;;;;;;12.27;9.30;;;5.00;99.90;;;;;;5031955;28;20040;-72
2020/12/06 11:15:10;;;;;;;11.02;8.80;;;5.30;99.90;;;;;;5032386;28;20025;-71
2020/12/06 11:17:36;;;;;;;10.50;8.10;;;5.40;99.90;;;;;;5033268;28;20041;-70
2020/12/06 11:20:02;;;;;;;10.15;8.50;;;5.50;99.90;;;;;;5032848;28;20550;-70
2020/12/06 11:22:28;;;;;;;9.57;8.18;;;5.60;99.90;;;;;;5033363;28;20079;-71
2020/12/06 11:24:54;;;;;;;10.02;8.40;;;5.60;99.90;;;;;;5026911;28;20108;-71
2020/12/06 11:27:20;;;;;;;9.73;8.70;;;5.70;99.90;;;;;;5031786;28;20498;-72
2020/12/06 11:29:46;;;;;;;10.40;8.80;;;5.60;99.90;;;;;;5032365;28;20037;-70
2020/12/06 11:32:12;;;;;;;10.13;8.80;;;5.60;99.90;;;;;;5032688;28;20036;-70
2020/12/06 11:34:38;;;;;;;10.68;8.93;;;5.30;99.90;;;;;;5017276;28;20026;-70
2020/12/06 11:37:03;;;;;;;12.85;8.75;;;5.40;99.90;;;;;;5011606;28;20030;-68
2020/12/06 11:39:29;;;;;;;9.82;7.70;;;5.40;99.90;;;;;;5012597;28;20387;-70
2020/12/06 11:41:55;;;;;;;10.15;7.65;;;5.20;99.90;;;;;;5012654;28;20021;-70
2020/12/06 11:44:22;;;;;;;9.82;8.02;;;5.00;99.90;;;;;;5014710;28;20026;-69
2020/12/06 11:46:48;;;;;;;9.48;8.07;;;5.10;99.90;;;;;;5039725;28;20017;-70
2020/12/06 11:49:13;;;;;;;8.63;7.10;;;5.10;99.90;;;;;;5043952;28;20032;-72
2020/12/06 11:51:39;;;;;;;8.65;6.35;;;5.00;99.90;;;;;;5047746;28;20025;-72
2020/12/06 11:54:05;;;;;;;9.02;7.00;;;5.00;99.90;;;;;;5050436;28;20032;-71
2020/12/06 11:56:31;;;;;;;9.85;7.20;;;4.90;99.90;;;;;;5050230;28;20050;-73
2020/12/06 11:58:57;;;;;;;9.18;7.50;;;4.90;99.90;;;;;;5049849;28;20079;-71
2020/12/06 12:01:23;;;;;;;8.70;7.18;;;5.20;99.90;;;;;;5035160;28;20082;-70
2020/12/06 12:03:48;;;;;;;9.63;7.80;;;5.30;99.90;;;;;;5030733;28;20026;-70
2020/12/06 12:06:17;;;;;;;8.52;7.32;;;5.50;99.90;;;;;;5031785;28;20433;-70
2020/12/06 12:08:43;;;;;;;9.85;7.03;;;5.60;99.90;;;;;;5032105;28;20017;-71
2020/12/06 12:11:12;;;;;;;9.93;8.00;;;5.70;99.90;;;;;;5032122;28;20040;-70
2020/12/06 12:13:38;;;;;;;9.63;8.25;;;5.60;99.90;;;;;;5031049;28;20339;-72
2020/12/06 12:16:04;;;;;;;9.02;7.55;;;5.70;99.90;;;;;;5032323;28;20064;-70
2020/12/06 12:18:30;;;;;;;7.90;7.10;;;5.80;99.90;;;;;;5034438;28;20079;-71
2020/12/06 12:20:56;;;;;;;8.93;7.30;;;5.60;99.90;;;;;;5032379;28;20025;-71
2020/12/06 12:23:22;;;;;;;7.95;6.70;;;5.50;99.90;;;;;;5031400;28;20083;-71
2020/12/06 12:25:48;;;;;;;7.93;7.07;;;5.40;99.90;;;;;;5032014;28;20091;-71
2020/12/06 12:28:13;;;;;;;7.90;6.35;;;5.60;99.90;;;;;;5027062;28;20018;-71
2020/12/06 12:30:40;;;;;;;7.00;6.40;;;5.60;99.90;;;;;;5020874;28;20024;-70
2020/12/06 12:33:05;;;;;;;7.90;6.13;;;5.70;99.90;;;;;;5032146;28;20034;-71
2020/12/06 12:35:31;;;;;;;8.48;6.97;;;5.60;99.90;;;;;;5032203;28;20029;-69
2020/12/06 12:37:57;;;;;;;7.82;7.05;;;5.50;99.90;;;;;;5032037;28;20171;-70
2020/12/06 12:40:25;;;;;;;6.93;6.25;;;5.50;99.90;;;;;;5039978;28;20032;-70